Time;durP1;ratioP1;P1;durP2;ratioP2;P2;SDS_P1;SDS_P2;PMS_P1;PMS_P2;Temp;Humidity;BMP_temperature;BMP_pressure;BME280_temperature;BME280_humidity;BME280_pressure;Samples;Min_cycle;Max_cycle;Signal;HPM_P1;HPM_P2
2021/02/28 00:01:13;;;;;;;0.80;0.80;;;;;;;1.68;73.01;98661.09;299395;264;63005;-53
2021/02/28 00:06:14;;;;;;;0.70;0.70;;;;;;;1.55;73.01;98664.47;299395;231;63009;-54
2021/02/28 00:11:15;;;;;;;0.80;0.80;;;;;;;1.48;73.37;98660.06;299395;202;63004;-54
2021/02/28 00:16:16;;;;;;;0.80;0.80;;;;;;;1.37;74.35;98652.59;299395;219;63009;-53
2021/02/28 00:21:17;;;;;;;0.80;0.80;;;;;;;1.44;74.28;98654.28;299395;203;63005;-53
2021/02/28 00:26:18;;;;;;;0.80;0.80;;;;;;;1.21;74.73;98659.81;299395;199;63009;-54
2021/02/28 00:31:18;;;;;;;0.80;0.80;;;;;;;1.17;74.36;98663.88;299395;220;63004;-53
2021/02/28 00:36:20;;;;;;;0.80;0.80;;;;;;;1.21;74.19;98656.31;299395;264;63009;-54
2021/02/28 00:41:21;;;;;;;0.80;0.80;;;;;;;1.29;73.74;98649.00;299395;207;63009;-53
2021/02/28 00:46:21;;;;;;;0.80;0.80;;;;;;;1.24;73.44;98643.41;299395;214;63009;-54
2021/02/28 00:51:22;;;;;;;0.82;0.82;;;;;;;1.20;73.58;98643.97;299395;286;63005;-54
2021/02/28 00:56:24;;;;;;;0.80;0.80;;;;;;;1.12;74.76;98644.91;299395;213;63018;-53
2021/02/28 01:01:25;;;;;;;0.80;0.80;;;;;;;1.09;74.30;98649.81;299395;199;63004;-53
2021/02/28 01:06:27;;;;;;;0.80;0.80;;;;;;;1.13;74.00;98641.22;299395;251;63009;-53
2021/02/28 01:11:28;;;;;;;0.80;0.80;;;;;;;1.10;74.64;98635.41;299395;228;63004;-54
2021/02/28 01:16:29;;;;;;;0.80;0.80;;;;;;;0.97;75.06;98625.44;299395;209;63009;-53
2021/02/28 01:21:30;;;;;;;0.80;0.80;;;;;;;0.96;74.89;98629.97;299395;205;63005;-54
2021/02/28 01:26:33;;;;;;;0.80;0.80;;;;;;;0.93;75.14;98619.63;299395;211;63022;-53
2021/02/28 01:31:34;;;;;;;0.80;0.80;;;;;;;0.95;74.99;98622.13;299395;286;63004;-54
2021/02/28 01:36:35;;;;;;;0.80;0.80;;;;;;;0.77;74.97;98597.66;299395;196;63009;-52
2021/02/28 01:41:36;;;;;;;0.70;0.70;;;;;;;0.82;75.64;98593.41;299395;228;63005;-53
2021/02/28 01:46:37;;;;;;;0.70;0.70;;;;;;;0.80;75.56;98595.44;299395;202;63009;-53
2021/02/28 01:51:40;;;;;;;0.80;0.80;;;;;;;0.88;75.40;98605.19;299395;224;63005;-53
2021/02/28 01:56:41;;;;;;;0.80;0.80;;;;;;;0.85;75.66;98600.22;299395;226;63020;-54
2021/02/28 02:01:43;;;;;;;0.80;0.80;;;;;;;0.64;75.56;98599.19;299395;213;63004;-54
2021/02/28 02:06:45;;;;;;;0.80;0.80;;;;;;;0.54;76.40;98587.97;299395;290;63009;-53
2021/02/28 02:11:46;;;;;;;0.80;0.80;;;;;;;0.38;77.52;98593.50;299395;204;63005;-54
2021/02/28 02:16:47;;;;;;;0.80;0.80;;;;;;;0.31;77.80;98593.44;299395;229;63009;-53
2021/02/28 02:21:57;;;;;;;0.80;0.80;;;;;;;0.43;77.48;98585.75;299395;203;63005;-53
2021/02/28 02:26:58;;;;;;;0.80;0.80;;;;;;;0.47;77.48;98581.69;299395;220;63009;-53
2021/02/28 02:32:00;;;;;;;0.80;0.80;;;;;;;0.36;77.55;98584.84;299395;223;63004;-53
2021/02/28 02:37:02;;;;;;;0.80;0.80;;;;;;;0.39;77.97;98579.12;299395;212;63009;-53
2021/02/28 02:42:03;;;;;;;0.80;0.80;;;;;;;0.31;77.53;98579.25;299395;203;63005;-53
2021/02/28 02:47:05;;;;;;;0.80;0.80;;;;;;;0.19;78.08;98575.41;299395;310;63009;-53
2021/02/28 02:52:06;;;;;;;0.90;0.90;;;;;;;0.25;78.42;98572.00;299395;196;63005;-53
2021/02/28 02:57:07;;;;;;;0.80;0.80;;;;;;;0.03;78.35;98564.91;299395;197;63009;-53
2021/02/28 03:02:11;;;;;;;0.80;0.80;;;;;;;-0.07;78.86;98559.87;299395;323;63018;-53
2021/02/28 03:07:12;;;;;;;0.80;0.80;;;;;;;-0.27;78.74;98558.75;299417;202;63018;-53
2021/02/28 03:12:13;;;;;;;0.80;0.80;;;;;;;-0.47;79.89;98545.13;299395;321;63005;-54
2021/02/28 03:17:14;;;;;;;1.05;1.05;;;;;;;-0.67;79.52;98545.66;299395;203;63009;-53
2021/02/28 03:22:15;;;;;;;0.90;0.90;;;;;;;-0.65;79.83;98544.63;299395;287;63004;-53
2021/02/28 03:27:17;;;;;;;0.80;0.80;;;;;;;-0.65;79.67;98544.63;299395;306;63009;-53
2021/02/28 03:32:17;;;;;;;0.80;0.80;;;;;;;-0.60;80.02;98544.91;299395;220;63004;-53
2021/02/28 03:37:19;;;;;;;0.80;0.80;;;;;;;-0.76;80.37;98546.75;299395;225;63009;-52
2021/02/28 03:42:20;;;;;;;0.80;0.80;;;;;;;-0.91;81.24;98551.19;299395;231;63005;-53
2021/02/28 03:47:21;;;;;;;0.90;0.90;;;;;;;-0.82;81.06;98541.31;299395;213;63008;-53
2021/02/28 03:52:22;;;;;;;0.82;0.82;;;;;;;-0.91;81.47;98548.53;299395;218;63004;-54
2021/02/28 03:57:23;;;;;;;1.30;1.30;;;;;;;-0.90;81.16;98544.87;299395;252;63009;-53
2021/02/28 04:02:24;;;;;;;0.90;0.90;;;;;;;-0.81;81.09;98543.78;299395;211;63021;-55
2021/02/28 04:07:24;;;;;;;0.90;0.90;;;;;;;-0.82;81.04;98534.12;299395;567;63009;-52
2021/02/28 04:12:25;;;;;;;0.80;0.80;;;;;;;-0.64;80.90;98543.63;299395;216;63005;-53
2021/02/28 04:17:27;;;;;;;0.82;0.82;;;;;;;-0.67;80.38;98534.97;299395;227;63008;-53
2021/02/28 04:22:27;;;;;;;0.82;0.82;;;;;;;-0.73;80.65;98545.56;299395;202;63007;-53
2021/02/28 04:27:28;;;;;;;0.90;0.90;;;;;;;-0.72;80.85;98542.72;299395;207;63009;-53
2021/02/28 04:32:29;;;;;;;0.80;0.80;;;;;;;-0.85;81.02;98534.50;299395;204;63004;-53
2021/02/28 04:37:30;;;;;;;0.80;0.80;;;;;;;-0.89;81.33;98546.53;299395;199;63009;-53
2021/02/28 04:42:31;;;;;;;0.90;0.90;;;;;;;-0.91;81.04;98543.22;299395;199;63005;-53
2021/02/28 04:47:32;;;;;;;0.90;0.90;;;;;;;-0.75;80.94;98532.41;299395;298;63009;-52
2021/02/28 04:52:33;;;;;;;0.90;0.90;;;;;;;-0.75;80.94;98537.75;299395;390;63004;-52
2021/02/28 04:57:34;;;;;;;0.90;0.90;;;;;;;-0.80;80.89;98534.78;299395;227;63009;-51
2021/02/28 05:02:35;;;;;;;0.90;0.90;;;;;;;-0.85;80.91;98526.50;299395;203;63012;-53
2021/02/28 05:07:36;;;;;;;0.90;0.90;;;;;;;-0.90;81.15;98533.38;299395;202;63009;-53
2021/02/28 05:12:37;;;;;;;0.80;0.80;;;;;;;-0.95;81.17;98541.06;299395;210;63005;-53
2021/02/28 05:17:38;;;;;;;0.82;0.82;;;;;;;-0.92;81.22;98540.72;299395;306;63009;-53
2021/02/28 05:22:39;;;;;;;0.80;0.80;;;;;;;-0.89;81.16;98551.84;299395;391;63004;-53
2021/02/28 05:27:40;;;;;;;0.80;0.80;;;;;;;-0.97;81.30;98538.59;299395;196;63019;-53
2021/02/28 05:32:42;;;;;;;0.80;0.80;;;;;;;-0.92;80.93;98530.91;299395;222;63005;-53
2021/02/28 05:37:43;;;;;;;0.80;0.80;;;;;;;-0.93;81.55;98523.06;299395;214;63009;-53
2021/02/28 05:42:44;;;;;;;0.80;0.80;;;;;;;-0.87;81.29;98517.84;299395;299;63005;-53
2021/02/28 05:47:50;;;;;;;0.80;0.80;;;;;;;-0.85;81.07;98521.16;299395;382;63009;-53
2021/02/28 05:52:52;;;;;;;0.90;0.90;;;;;;;-0.87;81.34;98509.88;299395;202;63004;-53
2021/02/28 05:57:55;;;;;;;0.80;0.80;;;;;;;-0.85;81.28;98510.50;299395;196;63009;-54
2021/02/28 06:03:25;;;;;;;0.80;0.80;;;;;;;-0.85;81.14;98510.50;299395;218;63001;-53
2021/02/28 06:08:26;;;;;;;1.77;1.67;;;;;;;-0.96;81.18;98513.59;299395;222;63016;-53
2021/02/28 06:13:28;;;;;;;0.80;0.80;;;;;;;-1.12;81.44;98503.09;299395;218;63005;-53
2021/02/28 06:18:29;;;;;;;0.90;0.90;;;;;;;-1.25;81.56;98518.84;299395;309;63009;-54
2021/02/28 06:23:30;;;;;;;0.90;0.90;;;;;;;-1.35;81.79;98524.41;299395;601;63004;-53
2021/02/28 06:28:31;;;;;;;0.90;0.90;;;;;;;-1.32;81.75;98520.56;299395;211;63009;-53
2021/02/28 06:33:32;;;;;;;0.80;0.80;;;;;;;-1.16;81.70;98513.28;299395;203;63005;-53
2021/02/28 06:38:39;;;;;;;0.82;0.82;;;;;;;-1.05;81.18;98514.72;299395;479;63009;-53
2021/02/28 06:43:58;;;;;;;0.88;0.88;;;;;;;-0.96;81.49;98513.59;299395;220;63004;-53
2021/02/28 06:49:00;;;;;;;0.88;0.88;;;;;;;-0.89;81.21;98517.22;299395;215;63005;-54
2021/02/28 06:54:03;;;;;;;0.80;0.80;;;;;;;-0.90;81.48;98518.22;299395;230;63004;-54
2021/02/28 06:59:07;;;;;;;0.88;0.88;;;;;;;-0.89;81.78;98521.72;299394;198;64009;-54
2021/02/28 07:04:08;;;;;;;0.90;0.90;;;;;;;-0.76;81.47;98525.44;299417;217;63005;-54
2021/02/28 07:09:09;;;;;;;0.80;0.80;;;;;;;-0.66;81.12;98519.81;299395;225;63005;-54
2021/02/28 07:14:16;;;;;;;1.05;1.05;;;;;;;-0.59;80.56;98519.91;299395;213;63004;-54
2021/02/28 07:19:29;;;;;;;0.82;0.82;;;;;;;-0.56;80.83;98519.56;299395;209;63009;-53
2021/02/28 07:24:33;;;;;;;0.80;0.80;;;;;;;-0.43;80.26;98519.75;299395;211;63005;-53
2021/02/28 07:29:57;;;;;;;0.80;0.80;;;;;;;-0.20;79.48;98522.31;299417;220;63009;-54
2021/02/28 07:35:30;;;;;;;4.25;1.65;;;;;;;-0.07;78.86;98517.19;299395;361;63012;-54
2021/02/28 07:40:33;;;;;;;0.80;0.80;;;;;;;0.14;78.63;98521.75;299395;319;63009;-54
2021/02/28 07:46:07;;;;;;;0.80;0.80;;;;;;;0.16;78.61;98514.37;299395;206;63004;-54
2021/02/28 07:51:08;;;;;;;0.80;0.80;;;;;;;0.21;78.58;98517.31;299395;241;63009;-53
2021/02/28 07:56:09;;;;;;;0.80;0.80;;;;;;;0.37;77.98;98527.75;299395;276;63008;-53
2021/02/28 08:01:42;;;;;;;0.80;0.80;;;;;;;0.66;76.78;98526.88;299395;248;63008;-53
2021/02/28 08:07:01;;;;;;;0.80;0.80;;;;;;;0.78;76.47;98519.16;299395;232;63004;-53
2021/02/28 08:12:03;;;;;;;0.80;0.80;;;;;;;1.23;75.16;98512.56;299395;232;63009;-52
2021/02/28 08:17:04;;;;;;;0.80;0.80;;;;;;;1.72;72.67;98507.16;299395;199;63005;-54
2021/02/28 08:22:18;;;;;;;0.77;0.77;;;;;;;1.84;72.63;98516.25;299395;257;63009;-53
2021/02/28 08:27:20;;;;;;;0.80;0.80;;;;;;;1.94;71.65;98510.56;299377;229;125009;-54
2021/02/28 08:32:23;;;;;;;0.80;0.80;;;;;;;2.15;71.85;98512.28;299395;368;63005;-54
2021/02/28 08:37:24;;;;;;;0.90;0.90;;;;;;;2.34;70.80;98506.19;299395;287;63000;-53
2021/02/28 08:42:26;;;;;;;0.80;0.80;;;;;;;2.76;68.87;98506.94;299395;265;63005;-54
2021/02/28 08:47:28;;;;;;;0.70;0.70;;;;;;;2.85;69.12;98513.72;299395;296;63001;-54
2021/02/28 08:52:32;;;;;;;0.70;0.70;;;;;;;3.21;67.48;98507.97;299395;205;63004;-55
2021/02/28 08:57:38;;;;;;;0.80;0.80;;;;;;;3.09;66.54;98509.66;299417;202;63000;-55
2021/02/28 09:02:43;;;;;;;0.70;0.70;;;;;;;3.26;66.98;98511.69;299395;211;63005;-53
2021/02/28 09:07:49;;;;;;;0.80;0.80;;;;;;;3.59;67.01;98506.31;299417;212;63000;-54
2021/02/28 09:12:59;;;;;;;0.70;0.70;;;;;;;3.70;65.05;98496.78;299395;247;63004;-54
2021/02/28 09:18:13;;;;;;;0.70;0.70;;;;;;;4.11;64.27;98501.84;299395;285;63000;-53
2021/02/28 09:23:20;;;;;;;0.70;0.70;;;;;;;3.88;65.23;98514.91;299395;212;63004;-53
2021/02/28 09:28:30;;;;;;;0.70;0.70;;;;;;;3.90;65.11;98516.34;299395;259;63000;-53
2021/02/28 09:33:39;;;;;;;0.70;0.70;;;;;;;3.86;64.78;98517.81;299395;300;63005;-54
2021/02/28 09:39:00;;;;;;;0.70;0.70;;;;;;;4.09;64.43;98521.91;299395;219;63001;-53
2021/02/28 09:44:19;;;;;;;0.70;0.70;;;;;;;4.03;64.02;98524.38;299395;212;63004;-53
2021/02/28 09:49:40;;;;;;;0.70;0.70;;;;;;;4.37;62.37;98512.47;299395;203;63000;-53
2021/02/28 09:55:04;;;;;;;0.70;0.70;;;;;;;3.91;64.63;98526.06;299395;307;63005;-54
2021/02/28 10:00:07;;;;;;;0.70;0.70;;;;;;;3.90;64.61;98528.97;299395;221;63000;-54
2021/02/28 10:05:15;;;;;;;0.80;0.80;;;;;;;4.26;62.96;98513.13;299395;210;63004;-53
2021/02/28 10:10:39;;;;;;;0.70;0.70;;;;;;;4.11;64.58;98514.47;299395;244;63000;-53
2021/02/28 10:15:41;;;;;;;0.70;0.70;;;;;;;4.29;63.26;98523.47;299395;250;63005;-53
2021/02/28 10:20:42;;;;;;;0.70;0.70;;;;;;;4.51;62.69;98518.59;299395;214;63000;-54
2021/02/28 10:25:44;;;;;;;0.70;0.70;;;;;;;4.65;62.17;98512.13;299395;208;63005;-53
2021/02/28 10:30:45;;;;;;;2.45;2.35;;;;;;;4.58;62.15;98500.56;299396;219;63001;-53
2021/02/28 10:35:46;;;;;;;0.70;0.70;;;;;;;4.85;62.01;98492.37;299396;218;63004;-53
2021/02/28 10:40:47;;;;;;;0.70;0.70;;;;;;;5.01;61.25;98498.03;299396;224;63000;-54
2021/02/28 10:45:48;;;;;;;0.70;0.70;;;;;;;5.11;60.94;98500.25;299396;236;63005;-55
2021/02/28 10:50:49;;;;;;;1.75;1.65;;;;;;;5.37;59.21;98483.06;299396;209;63000;-55
2021/02/28 10:55:51;;;;;;;0.70;0.70;;;;;;;5.23;60.27;98486.88;299396;227;63005;-54
2021/02/28 11:00:52;;;;;;;0.70;0.70;;;;;;;5.13;61.08;98491.97;299396;245;63001;-54
2021/02/28 11:05:53;;;;;;;0.70;0.70;;;;;;;5.17;60.33;98491.31;299396;224;63004;-54
2021/02/28 11:10:54;;;;;;;0.70;0.70;;;;;;;5.48;60.04;98482.34;299396;242;63000;-54
2021/02/28 11:15:55;;;;;;;0.60;0.60;;;;;;;5.59;60.01;98480.78;299397;244;63020;-54
2021/02/28 11:20:55;;;;;;;0.70;0.70;;;;;;;5.77;59.51;98472.72;299397;202;63008;-53
2021/02/28 11:25:57;;;;;;;1.00;1.00;;;;;;;5.92;58.03;98454.34;299396;203;63005;-55
2021/02/28 11:30:59;;;;;;;1.05;1.05;;;;;;;5.95;57.83;98453.87;299396;295;63001;-55
2021/02/28 11:36:00;;;;;;;0.70;0.70;;;;;;;5.82;59.66;98443.25;299396;297;63004;-53
2021/02/28 11:41:01;;;;;;;0.70;0.70;;;;;;;6.07;59.47;98431.59;299395;243;64000;-56
2021/02/28 11:46:02;;;;;;;0.70;0.70;;;;;;;6.16;58.42;98433.75;299396;222;63005;-55
2021/02/28 11:51:04;;;;;;;0.70;0.70;;;;;;;6.31;56.73;98425.25;299396;286;63000;-55
2021/02/28 11:56:06;;;;;;;0.68;0.68;;;;;;;6.32;56.36;98424.19;299396;316;63017;-56
2021/02/28 12:01:07;;;;;;;0.70;0.70;;;;;;;6.51;56.45;98409.63;299396;347;63000;-52
2021/02/28 12:06:08;;;;;;;0.70;0.70;;;;;;;6.56;55.81;98395.47;299396;286;63004;-55
2021/02/28 12:11:10;;;;;;;0.70;0.70;;;;;;;6.62;55.67;98399.91;299397;231;63000;-56
2021/02/28 12:16:11;;;;;;;0.70;0.70;;;;;;;6.92;54.40;98389.09;299397;199;63005;-59
2021/02/28 12:21:12;;;;;;;0.60;0.60;;;;;;;7.02;54.47;98367.72;299395;196;63000;-58
2021/02/28 12:26:13;;;;;;;0.60;0.60;;;;;;;6.97;54.25;98370.28;299393;202;64009;-60
2021/02/28 12:31:18;;;;;;;2.05;1.67;;;;;;;6.99;54.66;98368.19;299395;215;63005;-55
2021/02/28 12:36:18;;;;;;;0.70;0.70;;;;;;;7.36;52.97;98350.69;299417;292;63008;-59
2021/02/28 12:41:19;;;;;;;0.70;0.70;;;;;;;7.42;52.63;98345.41;299395;200;63004;-60
2021/02/28 12:46:20;;;;;;;0.70;0.70;;;;;;;7.47;52.11;98338.25;299395;282;63009;-54
2021/02/28 12:51:22;;;;;;;1.00;1.00;;;;;;;7.51;51.82;98328.59;299395;321;63004;-61
2021/02/28 12:56:23;;;;;;;0.60;0.60;;;;;;;7.66;51.38;98322.69;299395;238;63009;-60
2021/02/28 13:01:23;;;;;;;0.60;0.60;;;;;;;7.69;50.85;98314.09;299395;206;63010;-62
2021/02/28 13:06:25;;;;;;;0.60;0.60;;;;;;;8.00;48.73;98305.53;299395;212;63008;-57
2021/02/28 13:11:26;;;;;;;0.60;0.60;;;;;;;7.92;48.92;98297.81;299395;227;63010;-54
2021/02/28 13:16:27;;;;;;;0.62;0.62;;;;;;;8.12;48.76;98291.13;299395;227;63009;-55
2021/02/28 13:21:28;;;;;;;0.60;0.60;;;;;;;8.32;48.93;98291.47;299395;222;63004;-54
2021/02/28 13:26:32;;;;;;;0.70;0.70;;;;;;;8.41;46.66;98279.25;299395;239;63009;-64
2021/02/28 13:31:34;;;;;;;0.70;0.70;;;;;;;8.39;45.96;98275.97;299417;202;63005;-55
2021/02/28 13:36:35;;;;;;;0.60;0.60;;;;;;;8.31;46.36;98269.06;299395;197;63008;-55
2021/02/28 13:41:36;;;;;;;0.60;0.60;;;;;;;8.46;46.49;98265.81;299395;313;63004;-56
2021/02/28 13:46:37;;;;;;;0.70;0.70;;;;;;;8.43;46.78;98266.28;299395;293;63009;-52
2021/02/28 13:51:39;;;;;;;0.70;0.70;;;;;;;8.59;45.66;98256.56;299395;224;63004;-56
2021/02/28 13:56:40;;;;;;;0.60;0.60;;;;;;;8.67;45.29;98251.53;299394;198;64009;-56
2021/02/28 14:01:44;;;;;;;0.60;0.60;;;;;;;8.64;44.95;98252.03;299395;230;63005;-54
2021/02/28 14:06:45;;;;;;;0.70;0.70;;;;;;;8.67;45.10;98240.69;299417;208;63018;-55
2021/02/28 14:11:46;;;;;;;0.70;0.70;;;;;;;8.77;45.40;98241.91;299395;231;63004;-55
2021/02/28 14:16:48;;;;;;;0.60;0.60;;;;;;;8.74;44.15;98235.13;299395;214;63009;-55
2021/02/28 14:21:49;;;;;;;0.60;0.60;;;;;;;8.75;44.72;98234.06;299395;214;63004;-55
2021/02/28 14:26:50;;;;;;;0.60;0.60;;;;;;;8.80;44.10;98234.13;299395;234;63009;-56
2021/02/28 14:31:51;;;;;;;0.70;0.70;;;;;;;8.76;44.10;98229.47;299395;280;63005;-56
2021/02/28 14:36:52;;;;;;;0.60;0.60;;;;;;;8.66;44.52;98232.84;299395;216;63009;-55
2021/02/28 14:41:53;;;;;;;0.60;0.60;;;;;;;8.73;44.29;98226.19;299395;259;63004;-56
2021/02/28 14:46:54;;;;;;;0.60;0.60;;;;;;;8.83;44.67;98230.94;299395;215;63009;-55
2021/02/28 14:51:55;;;;;;;0.60;0.60;;;;;;;8.86;43.74;98207.97;299395;220;63005;-56
2021/02/28 14:56:56;;;;;;;0.60;0.60;;;;;;;8.84;42.89;98204.69;299395;202;63009;-56
2021/02/28 15:01:58;;;;;;;0.60;0.60;;;;;;;8.89;43.15;98212.88;299395;219;63005;-57
2021/02/28 15:06:59;;;;;;;0.60;0.60;;;;;;;8.82;42.91;98204.13;299395;291;63019;-56
2021/02/28 15:12:00;;;;;;;0.60;0.60;;;;;;;8.88;42.73;98197.72;299395;237;63004;-56
2021/02/28 15:17:01;;;;;;;0.60;0.60;;;;;;;8.91;42.78;98197.22;299395;218;63009;-55
2021/02/28 15:22:02;;;;;;;0.60;0.60;;;;;;;9.00;43.50;98206.53;299395;198;63005;-56
2021/02/28 15:27:04;;;;;;;0.70;0.70;;;;;;;9.10;41.92;98201.25;299395;350;63016;-56
2021/02/28 15:32:06;;;;;;;0.60;0.60;;;;;;;9.19;41.80;98191.62;299395;200;63005;-56
2021/02/28 15:37:07;;;;;;;0.60;0.60;;;;;;;9.25;41.46;98190.59;299395;212;63009;-56
2021/02/28 15:42:09;;;;;;;0.60;0.60;;;;;;;9.30;41.56;98196.09;299395;218;63004;-56
2021/02/28 15:47:10;;;;;;;0.90;0.90;;;;;;;9.26;42.11;98200.38;299395;232;63009;-56
2021/02/28 15:52:11;;;;;;;0.70;0.70;;;;;;;9.28;41.42;98198.22;299395;226;63005;-56
2021/02/28 15:57:15;;;;;;;0.60;0.60;;;;;;;9.38;41.42;98198.31;299395;243;63009;-56
2021/02/28 16:02:16;;;;;;;0.60;0.60;;;;;;;9.31;41.31;98202.31;299417;209;63005;-56
2021/02/28 16:07:18;;;;;;;0.60;0.60;;;;;;;9.25;41.21;98196.03;299395;202;63009;-59
2021/02/28 16:12:19;;;;;;;0.60;0.60;;;;;;;9.19;41.80;98202.44;299395;225;63004;-57
2021/02/28 16:17:20;;;;;;;0.60;0.60;;;;;;;9.02;42.08;98209.78;299395;245;63009;-57
2021/02/28 16:22:21;;;;;;;0.60;0.60;;;;;;;8.80;42.64;98206.25;299395;260;63005;-57
2021/02/28 16:27:22;;;;;;;0.60;0.60;;;;;;;8.63;42.78;98212.53;299395;220;63008;-57
2021/02/28 16:32:23;;;;;;;0.60;0.60;;;;;;;8.32;44.26;98221.16;299395;214;63004;-57
2021/02/28 16:37:24;;;;;;;0.60;0.60;;;;;;;8.10;45.53;98229.19;299395;202;63009;-56
2021/02/28 16:42:25;;;;;;;0.60;0.60;;;;;;;7.88;46.12;98223.69;299395;218;63004;-57
2021/02/28 16:47:26;;;;;;;0.60;0.60;;;;;;;7.76;46.41;98233.72;299395;214;63009;-58
2021/02/28 16:52:27;;;;;;;0.60;0.60;;;;;;;7.69;46.42;98249.25;299395;217;63005;-57
2021/02/28 16:57:28;;;;;;;0.60;0.60;;;;;;;7.54;46.57;98240.87;299395;196;63008;-56
2021/02/28 17:02:29;;;;;;;0.60;0.60;;;;;;;7.43;47.43;98249.81;299395;203;63004;-57
2021/02/28 17:07:30;;;;;;;0.60;0.60;;;;;;;7.29;47.80;98247.37;299395;333;63009;-57
2021/02/28 17:12:31;;;;;;;0.60;0.60;;;;;;;7.16;48.13;98254.94;299395;238;63005;-57
2021/02/28 17:17:32;;;;;;;0.60;0.60;;;;;;;6.98;49.31;98258.59;299395;206;63009;-57
2021/02/28 17:22:33;;;;;;;0.60;0.60;;;;;;;6.79;49.98;98267.88;299395;231;63005;-57
2021/02/28 17:27:34;;;;;;;0.70;0.70;;;;;;;6.60;50.61;98262.59;299395;199;63013;-57
2021/02/28 17:32:36;;;;;;;0.60;0.60;;;;;;;6.52;50.92;98270.22;299395;252;63004;-57
2021/02/28 17:37:46;;;;;;;0.70;0.70;;;;;;;6.34;51.60;98280.03;299395;209;63009;-52
2021/02/28 17:42:47;;;;;;;0.65;0.65;;;;;;;6.32;50.50;98281.31;299395;236;63005;-58
2021/02/28 17:47:49;;;;;;;0.70;0.70;;;;;;;6.27;51.28;98278.50;299395;262;63009;-56
2021/02/28 17:52:49;;;;;;;0.62;0.62;;;;;;;6.18;50.96;98274.50;299395;202;63005;-58
2021/02/28 17:57:54;;;;;;;0.70;0.70;;;;;;;6.19;50.62;98281.56;299395;227;63009;-58
2021/02/28 18:02:55;;;;;;;0.70;0.70;;;;;;;6.17;50.92;98284.47;299417;228;63004;-57
2021/02/28 18:08:00;;;;;;;0.60;0.60;;;;;;;6.01;52.35;98296.72;299395;233;63009;-57
2021/02/28 18:13:01;;;;;;;0.60;0.60;;;;;;;5.82;53.36;98297.78;299417;236;63005;-57
2021/02/28 18:18:02;;;;;;;0.70;0.70;;;;;;;5.70;54.17;98299.59;299395;240;63009;-56
2021/02/28 18:23:03;;;;;;;0.70;0.70;;;;;;;5.53;54.56;98304.81;299395;356;63005;-58
2021/02/28 18:28:04;;;;;;;0.70;0.70;;;;;;;5.39;55.59;98304.13;299395;274;63005;-57
2021/02/28 18:33:09;;;;;;;0.60;0.60;;;;;;;5.30;56.47;98302.78;299395;286;63004;-56
2021/02/28 18:38:10;;;;;;;0.70;0.70;;;;;;;5.21;55.55;98295.22;299417;196;63018;-57
2021/02/28 18:43:10;;;;;;;0.70;0.70;;;;;;;5.13;55.62;98292.84;299395;197;63005;-56
2021/02/28 18:48:12;;;;;;;0.70;0.70;;;;;;;5.10;55.25;98296.00;299395;262;63009;-56
2021/02/28 18:53:16;;;;;;;0.70;0.70;;;;;;;5.00;55.22;98296.50;299395;208;63005;-57
2021/02/28 18:58:17;;;;;;;0.70;0.70;;;;;;;4.80;56.15;98296.72;299417;281;63009;-57
2021/02/28 19:03:18;;;;;;;0.70;0.70;;;;;;;4.72;57.06;98289.75;299395;302;63004;-57
2021/02/28 19:08:19;;;;;;;0.70;0.70;;;;;;;4.71;57.17;98296.16;299395;285;63024;-57
2021/02/28 19:13:21;;;;;;;0.70;0.70;;;;;;;4.69;57.44;98295.56;299395;349;63019;-52
2021/02/28 19:18:24;;;;;;;0.70;0.70;;;;;;;4.68;57.13;98291.22;299395;328;63008;-57
2021/02/28 19:23:25;;;;;;;0.70;0.70;;;;;;;4.63;58.37;98299.13;299395;205;63004;-58
2021/02/28 19:28:26;;;;;;;0.70;0.70;;;;;;;4.56;58.21;98298.34;299395;253;63009;-57
2021/02/28 19:33:28;;;;;;;0.70;0.70;;;;;;;4.51;58.98;98306.25;299395;210;63004;-53
2021/02/28 19:38:32;;;;;;;0.70;0.70;;;;;;;4.46;59.18;98305.28;299395;307;63009;-57
2021/02/28 19:43:35;;;;;;;0.70;0.70;;;;;;;4.42;58.82;98304.91;299417;255;63005;-57
2021/02/28 19:48:36;;;;;;;0.70;0.70;;;;;;;4.40;58.39;98301.59;299373;277;63008;-58
2021/02/28 19:53:41;;;;;;;0.80;0.80;;;;;;;4.34;58.99;98310.53;299395;198;63004;-57
2021/02/28 19:58:42;;;;;;;;;;;;;;;4.29;59.07;98318.44;299996;982;6005;-57
2021/02/28 20:03:43;;;;;;;0.70;0.70;;;;;;;4.25;59.03;98317.22;299400;262;63008;-57
2021/02/28 20:08:44;;;;;;;0.70;0.70;;;;;;;4.20;59.64;98319.72;299395;218;63004;-57
2021/02/28 20:13:51;;;;;;;0.70;0.70;;;;;;;4.11;59.99;98321.03;299395;226;63009;-59
2021/02/28 20:18:52;;;;;;;0.70;0.70;;;;;;;4.10;59.96;98319.41;299395;236;63004;-57
2021/02/28 20:23:54;;;;;;;0.70;0.70;;;;;;;4.06;59.42;98315.50;299395;269;63009;-58
2021/02/28 20:28:56;;;;;;;0.70;0.70;;;;;;;4.03;59.37;98320.25;299395;309;63005;-52
2021/02/28 20:33:58;;;;;;;0.70;0.70;;;;;;;3.98;59.88;98317.41;299395;233;63009;-52
2021/02/28 20:39:00;;;;;;;0.73;0.73;;;;;;;3.92;59.52;98317.44;299395;204;63004;-54
2021/02/28 20:44:01;;;;;;;0.80;0.80;;;;;;;3.82;59.81;98315.19;299395;256;63009;-53
2021/02/28 20:49:02;;;;;;;0.77;0.77;;;;;;;3.85;59.33;98317.47;299394;212;64005;-58
2021/02/28 20:54:03;;;;;;;0.70;0.70;;;;;;;3.87;58.81;98311.88;299395;211;63009;-58
2021/02/28 20:59:04;;;;;;;0.70;0.70;;;;;;;3.78;59.10;98324.75;299395;332;63005;-56
2021/02/28 21:04:05;;;;;;;0.70;0.70;;;;;;;3.72;59.05;98325.59;299395;239;63009;-57
2021/02/28 21:09:06;;;;;;;0.70;0.70;;;;;;;3.69;59.51;98317.97;299395;202;63004;-58
2021/02/28 21:14:08;;;;;;;0.70;0.70;;;;;;;3.56;61.27;98326.91;299395;226;63009;-57
2021/02/28 21:19:10;;;;;;;0.70;0.70;;;;;;;3.41;61.76;98321.00;299395;211;63005;-53
2021/02/28 21:24:11;;;;;;;0.70;0.70;;;;;;;3.38;61.29;98313.38;299395;210;63009;-57
2021/02/28 21:29:12;;;;;;;0.70;0.70;;;;;;;3.27;62.22;98320.19;299395;203;63005;-58
2021/02/28 21:34:13;;;;;;;0.70;0.70;;;;;;;3.28;62.06;98316.47;299395;261;63009;-58
2021/02/28 21:39:15;;;;;;;0.70;0.70;;;;;;;3.23;62.01;98310.94;299395;227;63004;-57
2021/02/28 21:44:17;;;;;;;0.70;0.70;;;;;;;3.10;62.94;98319.03;299395;205;63009;-57
2021/02/28 21:49:18;;;;;;;0.70;0.70;;;;;;;3.06;62.93;98307.06;299395;202;63005;-57
2021/02/28 21:54:19;;;;;;;0.70;0.70;;;;;;;3.06;61.92;98307.06;299395;205;63009;-57
2021/02/28 21:59:21;;;;;;;0.70;0.70;;;;;;;3.05;61.62;98305.44;299395;198;63005;-56
2021/02/28 22:04:22;;;;;;;0.70;0.70;;;;;;;3.03;61.68;98302.13;299395;241;63009;-59
2021/02/28 22:09:23;;;;;;;0.70;0.70;;;;;;;2.95;62.20;98302.34;299395;300;63004;-59
2021/02/28 22:14:23;;;;;;;0.70;0.70;;;;;;;2.92;62.17;98294.72;299395;198;63009;-59
2021/02/28 22:19:25;;;;;;;0.70;0.70;;;;;;;2.87;62.60;98292.66;299395;213;63005;-58
2021/02/28 22:24:26;;;;;;;0.70;0.70;;;;;;;2.85;62.50;98293.91;299395;254;63008;-58
2021/02/28 22:29:27;;;;;;;0.70;0.70;;;;;;;2.88;62.26;98293.50;299395;218;63004;-60
2021/02/28 22:34:28;;;;;;;0.70;0.70;;;;;;;2.86;62.05;98284.81;299395;254;63021;-58
2021/02/28 22:39:30;;;;;;;0.70;0.70;;;;;;;2.82;62.50;98288.97;299395;301;63004;-58
2021/02/28 22:44:31;;;;;;;0.70;0.70;;;;;;;2.78;62.89;98282.38;299395;210;63009;-58
2021/02/28 22:49:33;;;;;;;0.70;0.70;;;;;;;2.78;62.97;98272.47;299395;222;63010;-59
2021/02/28 22:54:34;;;;;;;0.70;0.70;;;;;;;2.71;63.74;98271.69;299395;213;63008;-58
2021/02/28 22:59:34;;;;;;;0.70;0.70;;;;;;;2.60;64.49;98270.44;299395;244;63004;-58
2021/02/28 23:04:35;;;;;;;0.70;0.70;;;;;;;2.59;64.39;98274.16;299396;203;63009;-57
2021/02/28 23:09:38;;;;;;;0.70;0.70;;;;;;;2.55;64.65;98272.94;299395;231;64004;-58
2021/02/28 23:14:40;;;;;;;0.70;0.70;;;;;;;2.49;65.03;98268.41;299395;197;64009;-58
2021/02/28 23:19:41;;;;;;;0.70;0.70;;;;;;;2.49;65.74;98273.75;299396;214;63005;-58
2021/02/28 23:24:43;;;;;;;0.70;0.70;;;;;;;2.55;64.78;98267.56;299396;263;63008;-57
2021/02/28 23:29:44;;;;;;;0.70;0.70;;;;;;;2.46;65.47;98271.47;299396;206;63004;-58
2021/02/28 23:34:45;;;;;;;0.70;0.70;;;;;;;2.47;65.25;98275.00;299396;270;63009;-57
2021/02/28 23:39:46;;;;;;;0.70;0.70;;;;;;;2.30;66.04;98271.91;299396;233;63004;-59
2021/02/28 23:44:47;;;;;;;0.80;0.80;;;;;;;2.36;65.53;98273.78;299396;235;63009;-58
2021/02/28 23:49:48;;;;;;;0.70;0.70;;;;;;;2.35;65.50;98266.78;299397;256;63005;-57
2021/02/28 23:54:49;;;;;;;0.80;0.80;;;;;;;2.28;66.76;98280.16;299397;196;63008;-58
2021/02/28 23:59:50;;;;;;;0.70;0.70;;;;;;;2.29;66.08;98273.78;299396;231;63004;-58
